createdAt,value
2023-04-19T00:04:22.120Z,0.00
2023-04-19T00:14:27.776Z,0.00
2023-04-19T00:24:33.451Z,0.00
2023-04-19T00:34:39.433Z,0.00
2023-04-19T00:44:44.599Z,0.00
2023-04-19T00:54:49.927Z,0.00
2023-04-19T01:04:55.806Z,0.00
2023-04-19T01:15:01.961Z,0.00
2023-04-19T01:25:07.490Z,0.00
2023-04-19T01:35:13.279Z,0.00
2023-04-19T01:45:18.532Z,0.00
2023-04-19T01:55:23.977Z,0.00
2023-04-19T02:05:29.752Z,0.00
2023-04-19T02:15:35.678Z,0.00
2023-04-19T02:25:41.317Z,0.00
2023-04-19T02:35:47.130Z,0.00
2023-04-19T02:45:52.907Z,0.00
2023-04-19T02:55:58.410Z,0.00
2023-04-19T03:06:03.858Z,0.00
2023-04-19T03:16:09.702Z,0.00
2023-04-19T03:26:15.422Z,0.00
2023-04-19T03:36:20.938Z,0.00
2023-04-19T03:46:26.582Z,0.00
2023-04-19T03:56:32.364Z,0.00
2023-04-19T04:06:37.484Z,0.00
2023-04-19T04:16:42.647Z,0.00
2023-04-19T04:26:50.190Z,0.00
2023-04-19T04:36:56.278Z,0.00
2023-04-19T04:46:59.760Z,0.00
2023-04-19T04:57:05.039Z,4.00
2023-04-19T05:07:09.229Z,4.00
2023-04-19T05:17:14.443Z,0.00
2023-04-19T05:27:22.591Z,0.00
2023-04-19T05:37:28.546Z,4.00
2023-04-19T05:47:34.921Z,4.00
2023-04-19T05:57:40.921Z,4.00
2023-04-19T06:07:54.507Z,12.00
2023-04-19T06:18:00.459Z,12.00
2023-04-19T06:28:06.199Z,20.00
2023-04-19T06:38:12.193Z,44.00
2023-04-19T06:48:17.792Z,56.00
2023-04-19T06:58:23.338Z,32.00
2023-04-19T07:08:42.500Z,32.00
2023-04-19T07:18:39.698Z,56.00
2023-04-19T07:28:45.081Z,52.00
2023-04-19T07:38:50.890Z,312.00
2023-04-19T07:48:57.143Z,268.00
2023-04-19T07:59:08.472Z,296.00
2023-04-19T08:09:13.325Z,328.00
2023-04-19T08:19:18.846Z,352.00
2023-04-19T08:29:24.698Z,392.00
2023-04-19T08:39:33.609Z,476.00
2023-04-19T08:49:42.739Z,584.00
2023-04-19T08:59:48.973Z,684.00
2023-04-19T09:10:02.984Z,776.00
2023-04-19T09:20:05.360Z,952.00
2023-04-19T09:30:20.714Z,1184.00
2023-04-19T09:40:21.824Z,44.00
2023-04-19T09:50:27.660Z,116.00
2023-04-19T10:00:41.803Z,20.00
2023-04-19T10:10:45.566Z,20.00
2023-04-19T10:20:51.439Z,92.00
2023-04-19T10:32:16.554Z,20.00
2023-04-19T10:42:21.295Z,68.00
2023-04-19T10:52:27.725Z,12.00
2023-04-19T11:02:33.108Z,24.00
2023-04-19T11:12:40.042Z,20.00
2023-04-19T11:22:44.973Z,40.00
2023-04-19T11:32:50.627Z,20.00
2023-04-19T11:42:56.508Z,16.00
2023-04-19T11:53:02.391Z,28.00
2023-04-19T12:03:08.142Z,12.00
2023-04-19T12:13:15.447Z,12.00
2023-04-19T12:23:22.265Z,24.00
2023-04-19T12:33:29.766Z,12.00
2023-04-19T12:43:35.160Z,12.00
2023-04-19T12:53:41.057Z,12.00
2023-04-19T13:03:47.014Z,8.00
2023-04-19T13:13:53.224Z,12.00
2023-04-19T13:23:58.702Z,20.00
2023-04-19T13:34:04.218Z,8.00
2023-04-19T13:44:09.727Z,12.00
2023-04-19T13:54:15.490Z,12.00
2023-04-19T14:04:22.302Z,16.00
2023-04-19T14:14:30.234Z,12.00
2023-04-19T14:24:37.161Z,16.00
2023-04-19T14:34:42.457Z,4.00
2023-04-19T14:44:48.033Z,4.00
2023-04-19T14:54:53.874Z,12.00
2023-04-19T15:04:59.782Z,8.00
2023-04-19T15:15:06.075Z,4.00
2023-04-19T15:25:11.428Z,8.00
2023-04-19T15:35:17.069Z,8.00
2023-04-19T15:45:22.514Z,4.00
2023-04-19T15:55:28.192Z,4.00
2023-04-19T16:05:34.259Z,4.00
2023-04-19T16:15:39.992Z,4.00
2023-04-19T16:25:45.545Z,0.00
2023-04-19T16:35:51.331Z,4.00
2023-04-19T16:45:56.950Z,0.00
2023-04-19T16:56:03.286Z,4.00
2023-04-19T17:06:09.037Z,4.00
2023-04-19T17:16:14.926Z,0.00
2023-04-19T17:26:21.016Z,0.00
2023-04-19T17:36:26.889Z,0.00
2023-04-19T17:46:32.318Z,0.00
2023-04-19T17:56:38.071Z,0.00
2023-04-19T18:06:43.570Z,0.00
2023-04-19T18:16:49.149Z,0.00
2023-04-19T18:26:54.690Z,0.00
2023-04-19T18:37:00.206Z,0.00
2023-04-19T18:47:07.559Z,0.00
2023-04-19T19:07:35.646Z,0.00
2023-04-19T19:17:35.328Z,0.00
2023-04-19T19:27:40.907Z,0.00
2023-04-19T19:37:46.529Z,0.00
2023-04-19T19:47:52.327Z,0.00
2023-04-19T20:08:05.628Z,0.00
2023-04-19T20:18:11.150Z,0.00
2023-04-19T20:28:16.457Z,0.00
2023-04-19T20:38:21.320Z,0.00
2023-04-19T20:48:27.928Z,0.00
2023-04-19T20:58:34.399Z,0.00
2023-04-19T21:08:40.079Z,0.00
2023-04-19T21:18:45.709Z,0.00
2023-04-19T21:28:56.037Z,0.00
2023-04-19T21:39:03.516Z,0.00
2023-04-19T21:49:10.778Z,0.00
2023-04-19T21:59:18.374Z,0.00
2023-04-19T22:09:27.215Z,0.00
2023-04-19T22:19:34.494Z,0.00
2023-04-19T22:29:42.854Z,0.00
2023-04-19T22:39:49.854Z,0.00
2023-04-19T22:49:57.247Z,0.00
2023-04-19T23:00:04.595Z,0.00
2023-04-19T23:10:11.936Z,0.00
2023-04-19T23:20:20.369Z,0.00
2023-04-19T23:30:27.556Z,0.00
2023-04-19T23:40:35.297Z,0.00
2023-04-19T23:50:42.555Z,0.00
